createdAt,value
2022-11-13T00:04:28.368Z,7.87
2022-11-13T00:09:52.843Z,8.43
2022-11-13T00:15:14.427Z,9.07
2022-11-13T00:20:36.529Z,7.87
2022-11-13T00:26:07.031Z,8.20
2022-11-13T00:31:29.015Z,8.17
2022-11-13T00:36:50.767Z,7.20
2022-11-13T00:42:12.616Z,7.53
2022-11-13T00:47:34.496Z,7.00
2022-11-13T00:52:56.074Z,7.40
2022-11-13T00:58:17.979Z,7.20
2022-11-13T01:03:39.843Z,7.60
2022-11-13T01:09:01.419Z,7.40
2022-11-13T01:14:23.391Z,7.10
2022-11-13T01:19:45.187Z,8.20
2022-11-13T01:25:07.134Z,7.63
2022-11-13T01:30:29.157Z,7.40
2022-11-13T01:35:50.549Z,7.13
2022-11-13T01:41:33.031Z,7.67
2022-11-13T01:46:56.500Z,6.70
2022-11-13T01:52:21.823Z,7.03
2022-11-13T01:57:45.881Z,6.87
2022-11-13T02:03:07.477Z,7.50
2022-11-13T02:08:29.747Z,7.20
2022-11-13T02:13:51.729Z,7.13
2022-11-13T02:19:19.547Z,7.53
2022-11-13T02:24:45.274Z,6.60
2022-11-13T02:30:17.014Z,7.70
2022-11-13T02:35:39.882Z,6.83
2022-11-13T02:41:01.338Z,7.03
2022-11-13T02:46:23.004Z,6.83
2022-11-13T02:51:44.954Z,7.10
2022-11-13T02:57:06.658Z,6.83
2022-11-13T03:02:28.312Z,7.20
2022-11-13T03:07:50.326Z,6.73
2022-11-13T03:13:11.978Z,6.40
2022-11-13T03:18:33.449Z,7.20
2022-11-13T03:23:55.130Z,6.70
2022-11-13T03:29:16.773Z,6.73
2022-11-13T03:34:39.397Z,6.40
2022-11-13T03:40:00.820Z,5.37
2022-11-13T03:45:22.706Z,5.70
2022-11-13T03:50:47.693Z,6.53
2022-11-13T03:56:09.245Z,5.33
2022-11-13T04:01:31.153Z,4.80
2022-11-13T04:06:53.023Z,4.43
2022-11-13T04:12:14.458Z,5.40
2022-11-13T04:17:35.798Z,5.23
2022-11-13T04:22:57.650Z,5.23
2022-11-13T04:28:19.268Z,5.10
2022-11-13T04:33:40.759Z,5.37
2022-11-13T04:39:02.819Z,5.23
2022-11-13T04:44:24.925Z,5.10
2022-11-13T04:49:47.065Z,4.37
2022-11-13T04:55:09.855Z,4.10
2022-11-13T05:00:31.839Z,4.43
2022-11-13T05:05:53.626Z,4.30
2022-11-13T05:11:15.432Z,4.00
2022-11-13T05:16:37.174Z,4.23
2022-11-13T05:21:58.949Z,3.90
2022-11-13T05:27:20.575Z,4.47
2022-11-13T05:32:42.191Z,5.00
2022-11-13T05:38:03.723Z,5.20
2022-11-13T05:43:25.467Z,5.97
2022-11-13T05:48:48.319Z,5.33
2022-11-13T05:54:09.684Z,5.07
2022-11-13T05:59:31.722Z,6.17
2022-11-13T06:04:56.570Z,6.43
2022-11-13T06:10:18.298Z,5.33
2022-11-13T06:15:39.760Z,5.67
2022-11-13T06:21:07.143Z,4.93
2022-11-13T06:26:30.870Z,5.07
2022-11-13T06:31:52.328Z,5.60
2022-11-13T06:37:14.001Z,5.77
2022-11-13T06:42:35.643Z,6.37
2022-11-13T06:47:57.182Z,6.60
2022-11-13T06:53:18.793Z,6.23
2022-11-13T06:58:40.914Z,5.97
2022-11-13T07:04:04.162Z,6.00
2022-11-13T07:09:25.490Z,8.27
2022-11-13T07:14:46.805Z,5.50
2022-11-13T07:20:08.671Z,5.23
2022-11-13T07:25:31.361Z,5.97
2022-11-13T07:30:52.980Z,29.33
2022-11-13T07:36:14.241Z,5.93
2022-11-13T07:41:35.636Z,5.80
2022-11-13T07:46:56.760Z,6.00
2022-11-13T07:52:18.177Z,4.70
2022-11-13T07:57:39.894Z,4.07
2022-11-13T08:03:15.306Z,4.03
2022-11-13T08:08:37.156Z,3.60
2022-11-13T08:13:58.614Z,3.73
2022-11-13T08:19:20.592Z,3.97
2022-11-13T08:24:42.130Z,3.50
2022-11-13T08:30:04.491Z,4.00
2022-11-13T08:35:29.365Z,4.40
2022-11-13T08:40:52.570Z,4.17
2022-11-13T08:46:14.471Z,4.00
2022-11-13T08:51:36.452Z,3.90
2022-11-13T08:57:02.010Z,3.90
2022-11-13T09:02:26.146Z,3.13
2022-11-13T09:07:48.140Z,3.00
2022-11-13T09:13:11.812Z,2.60
2022-11-13T09:18:33.118Z,2.67
2022-11-13T09:23:55.306Z,3.13
2022-11-13T09:29:17.028Z,2.83
2022-11-13T09:34:38.608Z,2.63
2022-11-13T09:40:02.850Z,2.83
2022-11-13T09:45:24.610Z,2.43
2022-11-13T09:50:46.355Z,3.00
2022-11-13T09:56:22.889Z,2.80
2022-11-13T10:01:51.942Z,2.50
2022-11-13T10:07:31.613Z,2.77
2022-11-13T10:12:54.768Z,3.50
2022-11-13T10:18:19.456Z,3.03
2022-11-13T10:23:41.931Z,4.43
2022-11-13T10:29:18.167Z,4.73
2022-11-13T10:34:39.839Z,3.30
2022-11-13T10:40:04.180Z,2.93
2022-11-13T10:45:26.190Z,2.90
2022-11-13T10:51:02.709Z,6.20
2022-11-13T10:56:34.942Z,2.87
2022-11-13T11:01:56.768Z,2.73
2022-11-13T11:07:23.151Z,3.17
2022-11-13T11:13:11.722Z,3.03
2022-11-13T11:18:43.096Z,3.20
2022-11-13T11:24:15.715Z,4.03
2022-11-13T11:29:39.975Z,4.70
2022-11-13T11:35:24.789Z,4.37
2022-11-13T11:40:50.553Z,4.30
2022-11-13T11:46:19.021Z,3.80
2022-11-13T11:52:18.415Z,3.63
2022-11-13T11:57:47.514Z,4.00
2022-11-13T12:03:34.865Z,4.13
2022-11-13T12:08:56.264Z,5.13
2022-11-13T12:14:23.559Z,3.87
2022-11-13T12:20:03.623Z,3.87
2022-11-13T12:25:30.012Z,4.90
2022-11-13T12:30:55.657Z,6.20
2022-11-13T12:36:17.782Z,6.80
2022-11-13T12:42:02.830Z,6.30
2022-11-13T12:47:24.364Z,3.97
2022-11-13T12:52:46.328Z,4.13
2022-11-13T12:58:16.582Z,4.47
2022-11-13T13:03:41.317Z,3.80
2022-11-13T13:09:24.692Z,6.30
2022-11-13T13:14:58.183Z,7.87
2022-11-13T13:20:20.194Z,8.77
2022-11-13T13:25:41.701Z,5.20
2022-11-13T13:31:12.454Z,7.37
2022-11-13T13:36:40.777Z,7.13
2022-11-13T13:42:21.116Z,7.73
2022-11-13T13:47:48.006Z,7.87
2022-11-13T13:53:13.406Z,8.53
2022-11-13T13:58:36.943Z,7.43
2022-11-13T14:04:21.521Z,5.77
2022-11-13T14:09:43.388Z,5.20
2022-11-13T14:15:21.434Z,5.63
2022-11-13T14:20:52.428Z,5.73
2022-11-13T14:26:14.471Z,6.40
2022-11-13T14:31:37.161Z,5.93
2022-11-13T14:37:17.281Z,5.80
2022-11-13T14:42:44.755Z,5.00
2022-11-13T14:48:22.388Z,6.03
2022-11-13T14:53:43.692Z,5.83
2022-11-13T14:59:19.631Z,7.07
2022-11-13T15:04:41.680Z,7.00
2022-11-13T15:10:03.365Z,8.17
2022-11-13T15:15:28.609Z,8.97
2022-11-13T15:20:50.420Z,7.83
2022-11-13T15:26:12.799Z,8.27
2022-11-13T15:31:40.871Z,9.43
2022-11-13T15:37:06.651Z,9.50
2022-11-13T15:42:33.621Z,8.83
2022-11-13T15:47:55.453Z,9.10
2022-11-13T15:53:17.404Z,7.13
2022-11-13T15:58:39.339Z,6.67
2022-11-13T16:04:02.642Z,8.17
2022-11-13T16:09:24.714Z,10.43
2022-11-13T16:14:46.794Z,10.03
2022-11-13T16:20:17.108Z,9.37
2022-11-13T16:25:39.056Z,10.77
2022-11-13T16:31:01.718Z,10.97
2022-11-13T16:36:24.137Z,31.20
2022-11-13T16:41:47.380Z,9.93
2022-11-13T16:47:25.311Z,10.13
2022-11-13T16:52:48.169Z,12.33
2022-11-13T16:58:13.336Z,16.37
2022-11-13T17:03:35.588Z,10.70
2022-11-13T17:09:03.129Z,9.67
2022-11-13T17:14:25.909Z,10.13
2022-11-13T17:19:48.234Z,9.37
2022-11-13T17:25:11.787Z,10.87
2022-11-13T17:30:33.750Z,10.40
2022-11-13T17:35:57.301Z,10.00
2022-11-13T17:41:20.130Z,11.47
2022-11-13T17:57:16.877Z,13.67
2022-11-13T18:02:41.060Z,12.00
2022-11-13T18:08:04.208Z,13.23
2022-11-13T18:13:27.183Z,13.63
2022-11-13T18:18:55.632Z,13.90
2022-11-13T18:24:19.262Z,14.10
2022-11-13T18:29:43.814Z,11.87
2022-11-13T18:35:09.961Z,15.10
2022-11-13T18:40:32.431Z,14.33
2022-11-13T18:46:07.451Z,14.47
2022-11-13T18:51:30.693Z,18.30
2022-11-13T18:56:52.888Z,14.10
2022-11-13T19:02:14.714Z,26.43
2022-11-13T19:07:36.920Z,15.23
2022-11-13T19:12:58.512Z,15.63
2022-11-13T19:18:20.401Z,13.90
2022-11-13T19:23:42.678Z,15.77
2022-11-13T19:29:04.602Z,13.97
2022-11-13T19:34:26.745Z,16.13
2022-11-13T19:39:49.922Z,13.37
2022-11-13T19:45:11.958Z,13.43
2022-11-13T19:50:38.230Z,14.53
2022-11-13T19:56:01.280Z,13.70
2022-11-13T20:01:28.077Z,14.23
2022-11-13T20:06:51.166Z,15.37
2022-11-13T20:12:15.052Z,13.57
2022-11-13T20:17:37.943Z,13.67
2022-11-13T20:23:00.184Z,15.47
2022-11-13T20:28:22.625Z,17.37
2022-11-13T20:33:44.304Z,18.07
2022-11-13T20:39:09.305Z,15.53
2022-11-13T20:44:31.113Z,20.83
2022-11-13T20:49:52.675Z,17.17
2022-11-13T20:55:14.407Z,10.60
2022-11-13T21:00:36.743Z,12.10
2022-11-13T21:05:58.297Z,10.23
2022-11-13T21:11:26.061Z,9.50
2022-11-13T21:16:48.427Z,10.67
2022-11-13T21:22:10.198Z,9.13
2022-11-13T21:27:31.843Z,7.53
2022-11-13T21:32:53.502Z,9.00
2022-11-13T21:38:15.124Z,8.10
2022-11-13T21:43:37.080Z,7.37
2022-11-13T21:49:16.798Z,8.00
2022-11-13T21:54:38.283Z,7.80
2022-11-13T21:59:59.795Z,7.47
2022-11-13T22:05:21.926Z,8.43
2022-11-13T22:10:44.019Z,7.13
2022-11-13T22:16:08.552Z,6.67
2022-11-13T22:21:31.742Z,6.57
2022-11-13T22:26:54.469Z,5.50
2022-11-13T22:32:17.169Z,5.80
2022-11-13T22:37:39.521Z,5.87
2022-11-13T22:43:01.422Z,5.10
2022-11-13T22:48:23.647Z,5.63
2022-11-13T22:53:53.640Z,5.60
2022-11-13T22:59:15.390Z,5.60
2022-11-13T23:04:37.264Z,5.63
2022-11-13T23:09:59.085Z,6.00
2022-11-13T23:15:20.970Z,6.70
2022-11-13T23:20:46.399Z,6.47
2022-11-13T23:26:09.199Z,7.00
2022-11-13T23:31:30.756Z,7.20
2022-11-13T23:36:52.032Z,7.17
2022-11-13T23:42:13.892Z,7.47
2022-11-13T23:47:35.657Z,7.30
2022-11-13T23:52:57.661Z,7.13
2022-11-13T23:58:19.996Z,7.67
